createdAt,value
2019-04-27T00:03:53.000Z,22.03
2019-04-27T00:13:53.000Z,22.02
2019-04-27T00:33:53.000Z,21.98
2019-04-27T00:53:54.000Z,21.9
2019-04-27T01:03:54.000Z,21.87
2019-04-27T01:13:54.000Z,21.85
2019-04-27T01:23:54.000Z,21.79
2019-04-27T01:33:55.000Z,21.75
2019-04-27T01:43:54.000Z,21.75
2019-04-27T02:03:54.000Z,21.67
2019-04-27T02:13:54.000Z,21.65
2019-04-27T02:23:54.000Z,21.62
2019-04-27T02:33:54.000Z,21.61
2019-04-27T02:43:55.000Z,21.56
2019-04-27T02:53:54.000Z,21.55
2019-04-27T03:03:55.000Z,21.51
2019-04-27T03:13:54.000Z,21.52
2019-04-27T03:23:58.000Z,21.51
2019-04-27T03:33:55.000Z,21.48
2019-04-27T03:43:54.000Z,21.47
2019-04-27T03:53:54.000Z,21.47
2019-04-27T04:03:54.000Z,21.41
2019-04-27T04:13:55.000Z,21.48
2019-04-27T04:23:54.000Z,21.48
2019-04-27T04:33:54.000Z,21.49
2019-04-27T04:43:54.000Z,21.49
2019-04-27T04:53:54.000Z,21.47
2019-04-27T05:03:54.000Z,21.46
2019-04-27T05:13:56.000Z,21.44
2019-04-27T05:23:54.000Z,21.46
2019-04-27T05:43:54.000Z,21.48
2019-04-27T05:53:54.000Z,21.47
2019-04-27T06:03:54.000Z,21.52
2019-04-27T06:13:58.000Z,21.49
2019-04-27T06:23:54.000Z,21.47
2019-04-27T06:33:54.000Z,21.64
2019-04-27T06:43:54.000Z,21.66
2019-04-27T06:53:54.000Z,21.59
2019-04-27T07:03:54.000Z,21.65
2019-04-27T07:13:55.000Z,21.67
2019-04-27T07:23:54.000Z,21.68
2019-04-27T07:33:54.000Z,21.67
2019-04-27T07:43:54.000Z,21.67
2019-04-27T07:53:54.000Z,21.69
2019-04-27T08:03:54.000Z,21.68
2019-04-27T08:13:55.000Z,21.69
2019-04-27T08:23:55.000Z,21.64
2019-04-27T08:33:54.000Z,21.68
2019-04-27T08:43:55.000Z,21.69
2019-04-27T08:53:55.000Z,21.67
2019-04-27T09:03:55.000Z,21.68
2019-04-27T09:13:55.000Z,21.68
2019-04-27T09:23:56.000Z,21.66
2019-04-27T09:33:55.000Z,21.68
2019-04-27T09:43:56.000Z,21.72
2019-04-27T09:53:57.000Z,21.74
2019-04-27T10:13:55.000Z,21.74
2019-04-27T10:23:56.000Z,21.75
2019-04-27T10:33:55.000Z,21.77
2019-04-27T10:43:55.000Z,21.76
2019-04-27T10:53:56.000Z,21.77
2019-04-27T11:03:56.000Z,21.78
2019-04-27T11:23:55.000Z,21.78
2019-04-27T11:33:55.000Z,21.78
2019-04-27T11:43:57.000Z,21.79
2019-04-27T11:53:55.000Z,21.77
2019-04-27T12:03:55.000Z,21.76
2019-04-27T12:13:55.000Z,21.75
2019-04-27T12:23:55.000Z,21.68
2019-04-27T12:33:55.000Z,21.78
2019-04-27T12:43:55.000Z,21.77
2019-04-27T12:53:55.000Z,21.7
2019-04-27T13:03:59.000Z,21.71
2019-04-27T13:13:55.000Z,21.81
2019-04-27T13:23:55.000Z,21.82
2019-04-27T13:33:57.000Z,21.81
2019-04-27T13:43:57.000Z,21.79
2019-04-27T13:53:58.000Z,21.84
2019-04-27T14:03:55.000Z,21.85
2019-04-27T14:13:55.000Z,21.87
2019-04-27T14:23:59.000Z,21.89
2019-04-27T14:33:55.000Z,21.86
2019-04-27T14:43:55.000Z,21.89
2019-04-27T14:53:55.000Z,21.88
2019-04-27T15:03:55.000Z,21.88
2019-04-27T15:13:55.000Z,21.88
2019-04-27T15:23:58.000Z,21.87
2019-04-27T15:33:57.000Z,21.86
2019-04-27T15:43:55.000Z,21.82
2019-04-27T15:53:55.000Z,21.81
2019-04-27T16:03:55.000Z,21.78
2019-04-27T16:13:55.000Z,21.69
2019-04-27T16:23:55.000Z,21.62
2019-04-27T16:33:59.000Z,21.61
2019-04-27T16:43:55.000Z,21.57
2019-04-27T16:53:55.000Z,21.66
2019-04-27T17:03:55.000Z,21.6
2019-04-27T17:13:56.000Z,21.57
2019-04-27T17:23:56.000Z,21.54
2019-04-27T17:33:56.000Z,21.58
2019-04-27T17:53:56.000Z,21.6
2019-04-27T18:03:59.000Z,21.6
2019-04-27T18:13:56.000Z,21.61
2019-04-27T18:23:57.000Z,21.61
2019-04-27T18:33:57.000Z,21.58
2019-04-27T18:43:56.000Z,21.49
2019-04-27T18:53:56.000Z,21.46
2019-04-27T19:03:57.000Z,21.48
2019-04-27T19:14:00.000Z,21.52
2019-04-27T19:23:57.000Z,21.51
2019-04-27T19:33:56.000Z,21.56
2019-04-27T19:43:56.000Z,21.57
2019-04-27T20:03:56.000Z,21.61
2019-04-27T20:13:57.000Z,21.58
2019-04-27T20:23:57.000Z,21.62
2019-04-27T20:43:56.000Z,21.59
2019-04-27T20:53:59.000Z,21.6
2019-04-27T21:03:56.000Z,21.56
2019-04-27T21:23:58.000Z,21.56
2019-04-27T21:34:00.000Z,21.6
2019-04-27T21:43:56.000Z,21.54
2019-04-27T21:53:56.000Z,21.51
2019-04-27T22:13:56.000Z,21.52
2019-04-27T22:23:56.000Z,21.49
2019-04-27T22:33:56.000Z,21.43
2019-04-27T22:43:56.000Z,21.43
2019-04-27T22:53:56.000Z,21.38
2019-04-27T23:03:56.000Z,21.22
2019-04-27T23:13:56.000Z,21.16
2019-04-27T23:23:57.000Z,21.1
2019-04-27T23:33:58.000Z,21.09
2019-04-27T23:43:58.000Z,21.03
2019-04-27T23:53:56.000Z,21.02
